sensor_id;sensor_type;location;lat;lon;timestamp;temperature;humidity
6520;DHT22;3293;51.690;5.982;2023-03-26T00:00:00;8.50;99.90
6520;DHT22;3293;51.690;5.982;2023-03-26T00:05:00;8.60;99.90
6520;DHT22;3293;51.690;5.982;2023-03-26T00:10:02;8.70;99.90
6520;DHT22;3293;51.690;5.982;2023-03-26T00:15:03;8.60;99.90
6520;DHT22;3293;51.690;5.982;2023-03-26T00:20:05;8.60;99.90
6520;DHT22;3293;51.690;5.982;2023-03-26T00:25:09;8.50;99.90
6520;DHT22;3293;51.690;5.982;2023-03-26T00:30:10;8.30;99.90
6520;DHT22;3293;51.690;5.982;2023-03-26T00:35:11;8.20;99.90
6520;DHT22;3293;51.690;5.982;2023-03-26T00:40:26;8.20;99.90
6520;DHT22;3293;51.690;5.982;2023-03-26T00:45:26;8.20;99.90
6520;DHT22;3293;51.690;5.982;2023-03-26T00:50:27;8.30;99.90
6520;DHT22;3293;51.690;5.982;2023-03-26T00:55:27;8.30;99.90
6520;DHT22;3293;51.690;5.982;2023-03-26T01:00:29;8.30;99.90
6520;DHT22;3293;51.690;5.982;2023-03-26T01:05:43;8.30;99.90
6520;DHT22;3293;51.690;5.982;2023-03-26T01:10:44;8.20;99.90
6520;DHT22;3293;51.690;5.982;2023-03-26T01:15:49;8.20;99.90
6520;DHT22;3293;51.690;5.982;2023-03-26T01:20:49;8.20;99.90
6520;DHT22;3293;51.690;5.982;2023-03-26T01:26:04;8.30;99.90
6520;DHT22;3293;51.690;5.982;2023-03-26T01:31:20;8.30;99.90
6520;DHT22;3293;51.690;5.982;2023-03-26T01:42:01;8.10;99.90
6520;DHT22;3293;51.690;5.982;2023-03-26T01:47:02;8.00;99.90
6520;DHT22;3293;51.690;5.982;2023-03-26T01:52:10;7.90;99.90
6520;DHT22;3293;51.690;5.982;2023-03-26T02:07:48;7.80;99.90
6520;DHT22;3293;51.690;5.982;2023-03-26T02:12:51;7.80;99.90
6520;DHT22;3293;51.690;5.982;2023-03-26T02:17:51;7.80;99.90
6520;DHT22;3293;51.690;5.982;2023-03-26T02:22:52;7.70;99.90
6520;DHT22;3293;51.690;5.982;2023-03-26T02:27:52;7.70;99.90
6520;DHT22;3293;51.690;5.982;2023-03-26T02:32:52;7.70;99.90
6520;DHT22;3293;51.690;5.982;2023-03-26T02:37:52;7.80;99.90
6520;DHT22;3293;51.690;5.982;2023-03-26T02:42:52;7.80;99.90
6520;DHT22;3293;51.690;5.982;2023-03-26T02:47:52;7.90;99.90
6520;DHT22;3293;51.690;5.982;2023-03-26T02:52:52;7.90;99.90
6520;DHT22;3293;51.690;5.982;2023-03-26T02:57:52;8.00;99.90
6520;DHT22;3293;51.690;5.982;2023-03-26T03:02:53;8.20;99.90
6520;DHT22;3293;51.690;5.982;2023-03-26T03:07:53;8.20;99.90
6520;DHT22;3293;51.690;5.982;2023-03-26T03:12:56;8.20;99.90
6520;DHT22;3293;51.690;5.982;2023-03-26T03:17:56;8.10;99.90
6520;DHT22;3293;51.690;5.982;2023-03-26T03:22:56;8.10;99.90
6520;DHT22;3293;51.690;5.982;2023-03-26T03:27:56;8.10;99.90
6520;DHT22;3293;51.690;5.982;2023-03-26T03:32:57;8.10;99.90
6520;DHT22;3293;51.690;5.982;2023-03-26T03:37:59;8.20;99.90
6520;DHT22;3293;51.690;5.982;2023-03-26T03:42:59;8.20;99.90
6520;DHT22;3293;51.690;5.982;2023-03-26T03:47:59;8.20;99.90
6520;DHT22;3293;51.690;5.982;2023-03-26T03:52:58;8.20;99.90
6520;DHT22;3293;51.690;5.982;2023-03-26T03:57:59;8.20;99.90
6520;DHT22;3293;51.690;5.982;2023-03-26T04:02:59;8.20;99.90
6520;DHT22;3293;51.690;5.982;2023-03-26T04:08:05;8.20;99.90
6520;DHT22;3293;51.690;5.982;2023-03-26T04:13:05;8.20;99.90
6520;DHT22;3293;51.690;5.982;2023-03-26T04:18:06;8.20;99.90
6520;DHT22;3293;51.690;5.982;2023-03-26T04:23:09;8.10;99.90
6520;DHT22;3293;51.690;5.982;2023-03-26T04:28:24;8.10;99.90
6520;DHT22;3293;51.690;5.982;2023-03-26T04:33:32;8.00;99.90
6520;DHT22;3293;51.690;5.982;2023-03-26T04:38:50;7.90;99.90
6520;DHT22;3293;51.690;5.982;2023-03-26T04:43:52;7.80;99.90
6520;DHT22;3293;51.690;5.982;2023-03-26T04:48:53;7.70;99.90
6520;DHT22;3293;51.690;5.982;2023-03-26T04:53:57;7.80;99.90
6520;DHT22;3293;51.690;5.982;2023-03-26T04:59:00;7.80;99.90
6520;DHT22;3293;51.690;5.982;2023-03-26T05:04:00;7.80;99.90
6520;DHT22;3293;51.690;5.982;2023-03-26T05:09:00;7.80;99.90
6520;DHT22;3293;51.690;5.982;2023-03-26T05:14:02;7.90;99.90
6520;DHT22;3293;51.690;5.982;2023-03-26T05:19:03;7.90;99.90
6520;DHT22;3293;51.690;5.982;2023-03-26T05:24:03;7.90;99.90
6520;DHT22;3293;51.690;5.982;2023-03-26T05:29:04;7.80;99.90
6520;DHT22;3293;51.690;5.982;2023-03-26T05:34:04;7.80;99.90
6520;DHT22;3293;51.690;5.982;2023-03-26T05:39:05;7.90;99.90
6520;DHT22;3293;51.690;5.982;2023-03-26T05:44:05;7.70;99.90
6520;DHT22;3293;51.690;5.982;2023-03-26T05:49:05;7.70;99.90
6520;DHT22;3293;51.690;5.982;2023-03-26T05:54:05;7.60;99.90
6520;DHT22;3293;51.690;5.982;2023-03-26T05:59:04;7.50;99.90
6520;DHT22;3293;51.690;5.982;2023-03-26T06:04:05;7.60;99.90
6520;DHT22;3293;51.690;5.982;2023-03-26T06:09:05;7.50;99.90
6520;DHT22;3293;51.690;5.982;2023-03-26T06:14:06;7.50;99.90
6520;DHT22;3293;51.690;5.982;2023-03-26T06:19:05;7.50;99.90
6520;DHT22;3293;51.690;5.982;2023-03-26T06:24:06;7.50;99.90
6520;DHT22;3293;51.690;5.982;2023-03-26T06:29:06;7.60;99.90
6520;DHT22;3293;51.690;5.982;2023-03-26T06:34:06;7.60;99.90
6520;DHT22;3293;51.690;5.982;2023-03-26T06:39:06;7.70;99.90
6520;DHT22;3293;51.690;5.982;2023-03-26T06:44:06;7.70;99.90
6520;DHT22;3293;51.690;5.982;2023-03-26T06:49:06;7.80;99.90
6520;DHT22;3293;51.690;5.982;2023-03-26T06:54:06;7.80;99.90
6520;DHT22;3293;51.690;5.982;2023-03-26T06:59:06;7.90;99.90
6520;DHT22;3293;51.690;5.982;2023-03-26T07:04:05;7.90;99.90
6520;DHT22;3293;51.690;5.982;2023-03-26T07:09:05;8.00;99.90
6520;DHT22;3293;51.690;5.982;2023-03-26T07:14:05;8.00;99.90
6520;DHT22;3293;51.690;5.982;2023-03-26T07:19:05;8.10;99.90
6520;DHT22;3293;51.690;5.982;2023-03-26T07:24:07;8.10;99.90
6520;DHT22;3293;51.690;5.982;2023-03-26T07:29:42;8.10;99.90
6520;DHT22;3293;51.690;5.982;2023-03-26T07:34:55;8.10;99.90
6520;DHT22;3293;51.690;5.982;2023-03-26T07:45:35;8.20;99.90
6520;DHT22;3293;51.690;5.982;2023-03-26T07:50:38;8.20;99.90
6520;DHT22;3293;51.690;5.982;2023-03-26T08:01:13;8.20;99.90
6520;DHT22;3293;51.690;5.982;2023-03-26T08:06:37;8.30;99.90
6520;DHT22;3293;51.690;5.982;2023-03-26T08:11:51;8.30;99.90
6520;DHT22;3293;51.690;5.982;2023-03-26T08:22:16;8.40;99.90
6520;DHT22;3293;51.690;5.982;2023-03-26T08:27:31;8.40;99.90
6520;DHT22;3293;51.690;5.982;2023-03-26T08:32:36;8.30;99.90
6520;DHT22;3293;51.690;5.982;2023-03-26T08:37:36;8.40;99.90
6520;DHT22;3293;51.690;5.982;2023-03-26T08:53:29;8.80;99.90
6520;DHT22;3293;51.690;5.982;2023-03-26T08:58:44;8.90;99.90
6520;DHT22;3293;51.690;5.982;2023-03-26T09:04:17;9.10;99.90
6520;DHT22;3293;51.690;5.982;2023-03-26T09:41:50;9.30;99.90
6520;DHT22;3293;51.690;5.982;2023-03-26T09:52:53;9.40;99.90
6520;DHT22;3293;51.690;5.982;2023-03-26T10:03:38;9.50;99.90
6520;DHT22;3293;51.690;5.982;2023-03-26T10:19:44;9.80;99.90
6520;DHT22;3293;51.690;5.982;2023-03-26T10:25:25;9.80;99.90
6520;DHT22;3293;51.690;5.982;2023-03-26T10:51:58;9.70;99.90
6520;DHT22;3293;51.690;5.982;2023-03-26T10:56:59;9.70;99.90
6520;DHT22;3293;51.690;5.982;2023-03-26T11:02:27;9.80;99.90
6520;DHT22;3293;51.690;5.982;2023-03-26T11:07:33;9.80;99.90
6520;DHT22;3293;51.690;5.982;2023-03-26T11:12:45;9.70;99.90
6520;DHT22;3293;51.690;5.982;2023-03-26T11:18:06;9.50;99.90
6520;DHT22;3293;51.690;5.982;2023-03-26T11:23:32;9.50;99.90
6520;DHT22;3293;51.690;5.982;2023-03-26T11:33:52;9.30;99.90
6520;DHT22;3293;51.690;5.982;2023-03-26T11:38:55;9.50;99.90
6520;DHT22;3293;51.690;5.982;2023-03-26T11:44:03;9.70;99.90
6520;DHT22;3293;51.690;5.982;2023-03-26T11:49:08;9.80;99.90
6520;DHT22;3293;51.690;5.982;2023-03-26T11:54:11;10.00;99.90
6520;DHT22;3293;51.690;5.982;2023-03-26T11:59:30;9.90;99.90
6520;DHT22;3293;51.690;5.982;2023-03-26T12:04:40;9.80;99.90
6520;DHT22;3293;51.690;5.982;2023-03-26T12:09:55;9.90;99.90
6520;DHT22;3293;51.690;5.982;2023-03-26T12:14:57;9.90;99.90
6520;DHT22;3293;51.690;5.982;2023-03-26T12:19:57;10.00;99.90
6520;DHT22;3293;51.690;5.982;2023-03-26T12:25:18;10.00;99.90
6520;DHT22;3293;51.690;5.982;2023-03-26T12:30:22;10.20;99.90
6520;DHT22;3293;51.690;5.982;2023-03-26T12:35:29;10.30;99.90
6520;DHT22;3293;51.690;5.982;2023-03-26T12:40:33;10.30;99.90
6520;DHT22;3293;51.690;5.982;2023-03-26T12:45:41;10.10;99.90
6520;DHT22;3293;51.690;5.982;2023-03-26T12:56:19;10.20;99.90
6520;DHT22;3293;51.690;5.982;2023-03-26T13:01:52;10.30;99.90
6520;DHT22;3293;51.690;5.982;2023-03-26T13:06:56;10.40;99.90
6520;DHT22;3293;51.690;5.982;2023-03-26T13:17:22;9.80;99.90
6520;DHT22;3293;51.690;5.982;2023-03-26T13:27:39;9.40;99.90
6520;DHT22;3293;51.690;5.982;2023-03-26T13:33:16;9.30;99.90
6520;DHT22;3293;51.690;5.982;2023-03-26T13:38:33;9.40;99.90
6520;DHT22;3293;51.690;5.982;2023-03-26T13:49:12;9.40;99.90
6520;DHT22;3293;51.690;5.982;2023-03-26T13:54:38;9.20;99.90
6520;DHT22;3293;51.690;5.982;2023-03-26T13:59:55;9.00;99.90
6520;DHT22;3293;51.690;5.982;2023-03-26T14:05:04;8.70;99.90
6520;DHT22;3293;51.690;5.982;2023-03-26T14:10:16;8.50;99.90
6520;DHT22;3293;51.690;5.982;2023-03-26T14:15:25;8.60;99.90
6520;DHT22;3293;51.690;5.982;2023-03-26T14:31:31;8.70;99.90
6520;DHT22;3293;51.690;5.982;2023-03-26T14:41:52;8.40;99.90
6520;DHT22;3293;51.690;5.982;2023-03-26T14:47:08;8.40;99.90
6520;DHT22;3293;51.690;5.982;2023-03-26T14:52:30;8.30;99.90
6520;DHT22;3293;51.690;5.982;2023-03-26T15:52:18;8.80;99.90
6520;DHT22;3293;51.690;5.982;2023-03-26T16:02:40;8.60;99.90
6520;DHT22;3293;51.690;5.982;2023-03-26T16:18:26;8.50;99.90
6520;DHT22;3293;51.690;5.982;2023-03-26T16:33:48;8.30;99.90
6520;DHT22;3293;51.690;5.982;2023-03-26T16:44:15;8.10;99.90
6520;DHT22;3293;51.690;5.982;2023-03-26T16:49:21;8.00;99.90
6520;DHT22;3293;51.690;5.982;2023-03-26T17:00:19;7.90;99.90
6520;DHT22;3293;51.690;5.982;2023-03-26T17:05:42;7.80;99.90
6520;DHT22;3293;51.690;5.982;2023-03-26T17:16:31;7.60;99.90
6520;DHT22;3293;51.690;5.982;2023-03-26T17:21:45;7.50;99.90
6520;DHT22;3293;51.690;5.982;2023-03-26T17:32:10;7.30;99.90
6520;DHT22;3293;51.690;5.982;2023-03-26T17:47:38;7.20;99.90
6520;DHT22;3293;51.690;5.982;2023-03-26T17:53:00;7.10;99.90
6520;DHT22;3293;51.690;5.982;2023-03-26T17:58:06;7.10;99.90
6520;DHT22;3293;51.690;5.982;2023-03-26T18:03:30;7.00;99.90
6520;DHT22;3293;51.690;5.982;2023-03-26T18:08:56;7.00;99.90
6520;DHT22;3293;51.690;5.982;2023-03-26T18:20:04;6.90;99.90
6520;DHT22;3293;51.690;5.982;2023-03-26T18:25:26;6.90;99.90
6520;DHT22;3293;51.690;5.982;2023-03-26T18:30:27;6.80;99.90
6520;DHT22;3293;51.690;5.982;2023-03-26T18:35:43;6.80;99.90
6520;DHT22;3293;51.690;5.982;2023-03-26T18:40:44;6.80;99.90
6520;DHT22;3293;51.690;5.982;2023-03-26T18:45:49;6.80;99.90
6520;DHT22;3293;51.690;5.982;2023-03-26T18:51:02;6.70;99.90
6520;DHT22;3293;51.690;5.982;2023-03-26T18:56:18;6.60;99.90
6520;DHT22;3293;51.690;5.982;2023-03-26T19:01:20;6.50;99.90
6520;DHT22;3293;51.690;5.982;2023-03-26T19:06:21;6.50;99.90
6520;DHT22;3293;51.690;5.982;2023-03-26T19:11:23;6.40;99.90
6520;DHT22;3293;51.690;5.982;2023-03-26T19:16:27;6.40;99.90
6520;DHT22;3293;51.690;5.982;2023-03-26T19:21:33;6.30;99.90
6520;DHT22;3293;51.690;5.982;2023-03-26T19:26:34;6.40;99.90
6520;DHT22;3293;51.690;5.982;2023-03-26T19:31:36;6.40;99.90
6520;DHT22;3293;51.690;5.982;2023-03-26T19:41:51;6.40;99.90
6520;DHT22;3293;51.690;5.982;2023-03-26T19:47:21;6.30;99.90
6520;DHT22;3293;51.690;5.982;2023-03-26T19:52:31;6.40;99.90
6520;DHT22;3293;51.690;5.982;2023-03-26T19:57:32;6.40;99.90
6520;DHT22;3293;51.690;5.982;2023-03-26T20:02:35;6.30;99.90
6520;DHT22;3293;51.690;5.982;2023-03-26T20:07:35;6.20;99.90
6520;DHT22;3293;51.690;5.982;2023-03-26T20:12:37;6.30;99.90
6520;DHT22;3293;51.690;5.982;2023-03-26T20:17:37;6.30;99.90
6520;DHT22;3293;51.690;5.982;2023-03-26T20:22:41;6.30;99.90
6520;DHT22;3293;51.690;5.982;2023-03-26T20:27:42;6.20;99.90
6520;DHT22;3293;51.690;5.982;2023-03-26T20:32:42;6.20;99.90
6520;DHT22;3293;51.690;5.982;2023-03-26T20:37:43;6.10;99.90
6520;DHT22;3293;51.690;5.982;2023-03-26T20:42:44;5.90;99.90
6520;DHT22;3293;51.690;5.982;2023-03-26T20:47:45;5.60;99.90
6520;DHT22;3293;51.690;5.982;2023-03-26T20:52:45;5.50;99.90
6520;DHT22;3293;51.690;5.982;2023-03-26T20:57:48;5.30;99.90
6520;DHT22;3293;51.690;5.982;2023-03-26T21:02:50;5.10;99.90
6520;DHT22;3293;51.690;5.982;2023-03-26T21:18:15;4.70;99.90
6520;DHT22;3293;51.690;5.982;2023-03-26T21:23:24;4.60;99.90
6520;DHT22;3293;51.690;5.982;2023-03-26T21:28:34;4.50;99.90
6520;DHT22;3293;51.690;5.982;2023-03-26T21:33:36;4.40;99.90
6520;DHT22;3293;51.690;5.982;2023-03-26T21:38:39;4.40;99.90
6520;DHT22;3293;51.690;5.982;2023-03-26T21:43:42;4.40;99.90
6520;DHT22;3293;51.690;5.982;2023-03-26T21:48:42;4.50;99.90
6520;DHT22;3293;51.690;5.982;2023-03-26T21:53:42;4.60;99.90
6520;DHT22;3293;51.690;5.982;2023-03-26T21:58:52;4.70;99.90
6520;DHT22;3293;51.690;5.982;2023-03-26T22:04:19;4.70;99.90
6520;DHT22;3293;51.690;5.982;2023-03-26T22:09:17;4.70;99.90
6520;DHT22;3293;51.690;5.982;2023-03-26T22:14:17;4.60;99.90
6520;DHT22;3293;51.690;5.982;2023-03-26T22:19:17;4.50;99.90
6520;DHT22;3293;51.690;5.982;2023-03-26T22:24:17;4.40;99.90
6520;DHT22;3293;51.690;5.982;2023-03-26T22:29:18;4.30;99.90
6520;DHT22;3293;51.690;5.982;2023-03-26T22:34:18;4.20;99.90
6520;DHT22;3293;51.690;5.982;2023-03-26T22:39:18;4.00;99.90
6520;DHT22;3293;51.690;5.982;2023-03-26T22:44:18;4.00;99.90
6520;DHT22;3293;51.690;5.982;2023-03-26T22:49:19;3.90;99.90
6520;DHT22;3293;51.690;5.982;2023-03-26T22:54:19;3.70;99.90
6520;DHT22;3293;51.690;5.982;2023-03-26T22:59:19;3.70;99.90
6520;DHT22;3293;51.690;5.982;2023-03-26T23:04:20;3.50;99.90
6520;DHT22;3293;51.690;5.982;2023-03-26T23:09:26;3.60;99.90
6520;DHT22;3293;51.690;5.982;2023-03-26T23:14:33;3.50;99.90
6520;DHT22;3293;51.690;5.982;2023-03-26T23:19:33;3.50;99.90
6520;DHT22;3293;51.690;5.982;2023-03-26T23:24:33;3.40;99.90
6520;DHT22;3293;51.690;5.982;2023-03-26T23:29:33;3.40;99.90
6520;DHT22;3293;51.690;5.982;2023-03-26T23:34:34;3.40;99.90
6520;DHT22;3293;51.690;5.982;2023-03-26T23:39:34;3.30;99.90
6520;DHT22;3293;51.690;5.982;2023-03-26T23:44:35;3.30;99.90
6520;DHT22;3293;51.690;5.982;2023-03-26T23:49:37;3.30;99.90
6520;DHT22;3293;51.690;5.982;2023-03-26T23:54:37;3.30;99.90
6520;DHT22;3293;51.690;5.982;2023-03-26T23:59:37;3.20;99.90
